Time;durP1;ratioP1;P1;durP2;ratioP2;P2;SDS_P1;SDS_P2;PMS_P1;PMS_P2;Temp;Humidity;BMP_temperature;BMP_pressure;BME280_temperature;BME280_humidity;BME280_pressure;Samples;Min_cycle;Max_cycle;Signal;HPM_P1;HPM_P2
2021/05/10 05:11:59;;;;;;;9.45;4.85;;;;;;;25.74;46.54;99199.44;1785986;76;22537;-66
2021/05/10 05:14:40;;;;;;;15.93;5.28;;;;;;;25.97;46.51;99192.73;1837274;77;22459;-65
2021/05/10 05:17:19;;;;;;;9.87;5.03;;;;;;;26.27;45.98;99188.16;1813159;77;27869;-66
2021/05/10 05:19:55;;;;;;;8.30;4.22;;;;;;;26.55;45.22;99181.15;1836077;77;22273;-65
2021/05/10 05:22:32;;;;;;;7.73;4.20;;;;;;;26.75;44.50;99183.21;1817724;77;27946;-65
2021/05/10 05:25:13;;;;;;;9.18;4.10;;;;;;;26.83;44.18;99187.11;1757675;80;22811;-66
2021/05/10 05:27:50;;;;;;;8.18;4.28;;;;;;;26.84;43.83;99176.70;1794539;78;23394;-65
2021/05/10 05:30:27;;;;;;;23.77;4.85;;;;;;;26.55;43.49;99182.48;1832483;76;22606;-65
2021/05/10 05:33:04;;;;;;;12.13;4.90;;;;;;;26.74;43.22;99181.53;1783698;78;27939;-66
2021/05/10 05:35:41;;;;;;;9.73;4.05;;;;;;;27.06;43.05;99176.72;1792761;78;22356;-64
2021/05/10 05:38:17;;;;;;;9.37;4.10;;;;;;;27.50;42.77;99178.33;1771850;77;21963;-64
2021/05/10 05:40:53;;;;;;;5.75;3.20;;;;;;;27.68;42.16;99176.81;1827331;77;22331;-64
2021/05/10 05:43:30;;;;;;;7.13;3.80;;;;;;;27.71;41.46;99178.28;1781364;77;28012;-64
2021/05/10 05:46:14;;;;;;;18.07;4.90;;;;;;;27.93;41.00;99166.17;1813014;77;28508;-65
2021/05/10 05:48:50;;;;;;;6.47;3.55;;;;;;;28.22;40.66;99171.25;1824968;75;23383;-64
2021/05/10 05:51:26;;;;;;;7.25;4.00;;;;;;;28.19;39.59;99170.31;1816363;76;29500;-63
2021/05/10 05:54:04;;;;;;;6.23;4.03;;;;;;;28.10;39.73;99163.47;1815498;76;31826;-63
2021/05/10 05:56:39;;;;;;;8.78;3.22;;;;;;;28.23;39.49;99160.84;1798049;77;22517;-64
2021/05/10 05:59:17;;;;;;;15.97;4.20;;;;;;;27.96;38.27;99153.70;1783797;78;28050;-64
2021/05/10 06:01:53;;;;;;;9.83;3.80;;;;;;;27.84;38.28;99159.62;1768950;78;22469;-64
2021/05/10 06:04:29;;;;;;;12.85;4.40;;;;;;;27.74;38.26;99160.97;1780070;78;28067;-64
2021/05/10 06:07:05;;;;;;;9.50;4.20;;;;;;;27.71;37.87;99163.53;1813980;76;27901;-64
2021/05/10 06:12:06;;;;;;;20.20;5.60;;;;;;;27.87;37.46;99165.93;1826462;77;22063;-64
2021/05/10 06:14:42;;;;;;;8.60;4.10;;;;;;;27.51;36.91;99166.59;1773139;77;23977;-63
2021/05/10 06:18:29;;;;;;;6.30;3.98;;;;;;;26.47;36.23;99165.16;1855083;75;22862;-64
2021/05/10 06:21:06;;;;;;;8.45;3.40;;;;;;;25.77;36.22;99167.02;1792777;78;22844;-64
2021/05/10 06:23:42;;;;;;;10.60;4.00;;;;;;;25.14;36.17;99171.27;1818795;76;28409;-64
2021/05/10 06:26:18;;;;;;;12.75;4.20;;;;;;;25.12;36.43;99169.27;1779156;78;28420;-64
2021/05/10 06:28:58;;;;;;;10.20;3.67;;;;;;;25.18;36.19;99165.90;1842133;77;22510;-64
2021/05/10 06:31:33;;;;;;;10.17;3.97;;;;;;;25.22;36.31;99160.52;1811164;77;27984;-64
2021/05/10 06:34:09;;;;;;;9.87;3.83;;;;;;;25.32;36.27;99154.07;1785252;77;28029;-63
2021/05/10 06:36:45;;;;;;;9.55;4.00;;;;;;;25.52;36.13;99159.24;1818365;77;28510;-64
2021/05/10 06:39:21;;;;;;;8.73;4.10;;;;;;;25.66;35.87;99159.77;1758058;79;38382;-63
2021/05/10 06:41:57;;;;;;;15.50;4.17;;;;;;;25.70;36.02;99159.39;1753937;78;28373;-64
2021/05/10 06:44:32;;;;;;;10.60;3.50;;;;;;;25.97;35.90;99152.09;1754393;78;28043;-63
2021/05/10 06:47:09;;;;;;;14.27;3.13;;;;;;;26.14;35.62;99155.91;1762403;78;28648;-64
2021/05/10 06:49:45;;;;;;;7.93;3.47;;;;;;;26.24;35.54;99155.09;1784443;77;28093;-64
2021/05/10 06:52:21;;;;;;;7.70;3.87;;;;;;;26.42;35.94;99152.85;1806729;77;28073;-63
2021/05/10 06:56:18;;;;;;;7.17;3.90;;;;;;;26.65;35.03;99158.58;1790900;77;22077;-64
2021/05/10 06:58:56;;;;;;;3.50;3.03;;;;;;;26.27;34.98;99158.73;1788661;78;22375;-64
2021/05/10 07:01:34;;;;;;;8.47;4.17;;;;;;;26.03;35.28;99158.03;1784471;78;28052;-64
2021/05/10 07:06:52;;;;;;;7.40;3.60;;;;;;;26.06;34.94;99160.33;1796646;75;22796;-64
2021/05/10 07:09:30;;;;;;;8.30;3.47;;;;;;;25.98;34.80;99160.43;1833979;77;23464;-64
2021/05/10 07:12:07;;;;;;;10.10;3.70;;;;;;;25.53;34.44;99159.55;1813485;77;27945;-64
2021/05/10 07:14:46;;;;;;;9.63;3.43;;;;;;;25.17;34.34;99156.72;1826750;76;22805;-65
2021/05/10 07:17:25;;;;;;;8.90;3.75;;;;;;;24.70;34.54;99143.88;1748381;77;28132;-65
2021/05/10 07:20:00;;;;;;;11.73;3.60;;;;;;;24.50;34.61;99149.33;1831162;77;23102;-65
2021/05/10 07:22:43;;;;;;;11.23;3.23;;;;;;;24.22;35.00;99147.11;1829282;77;23850;-64
2021/05/10 07:25:19;;;;;;;7.97;2.83;;;;;;;23.84;34.92;99154.94;1795515;78;22785;-64
2021/05/10 07:27:55;;;;;;;23.95;5.87;;;;;;;23.44;35.17;99156.67;1785477;78;28708;-65
2021/05/10 07:30:31;;;;;;;27.20;5.08;;;;;;;23.27;35.54;99157.66;1780815;78;28531;-64
2021/05/10 07:33:08;;;;;;;16.42;4.67;;;;;;;23.18;35.54;99152.02;1816748;76;28141;-64
2021/05/10 07:35:45;;;;;;;4.25;2.95;;;;;;;23.19;35.68;99148.34;1733653;80;23918;-64
2021/05/10 07:38:25;;;;;;;7.78;3.47;;;;;;;23.09;36.18;99147.70;1795823;77;22964;-64
2021/05/10 07:41:43;;;;;;;28.12;7.58;;;;;;;22.89;36.22;99134.69;1831227;77;22740;-64
2021/05/10 07:44:22;;;;;;;45.75;8.68;;;;;;;22.77;36.37;99144.84;1798883;78;22959;-64
2021/05/10 07:47:01;;;;;;;30.30;6.45;;;;;;;22.62;36.59;99138.98;1772431;78;22460;-64
2021/05/10 07:49:40;;;;;;;25.20;4.42;;;;;;;22.52;36.83;99147.95;1837238;76;23530;-63
2021/05/10 07:53:40;;;;;;;10.65;3.37;;;;;;;22.52;36.99;99145.30;1829273;76;22823;-62
2021/05/10 07:56:15;;;;;;;10.78;3.22;;;;;;;22.38;37.22;99143.27;1815157;77;28035;-63
2021/05/10 07:58:54;;;;;;;40.43;6.78;;;;;;;22.36;37.19;99147.91;1821018;76;31760;-64
2021/05/10 08:01:30;;;;;;;6.10;2.55;;;;;;;22.48;37.50;99154.58;1837516;75;22350;-63
2021/05/10 08:04:06;;;;;;;7.73;2.57;;;;;;;22.50;37.54;99155.77;1777794;78;28005;-64
2021/05/10 08:06:42;;;;;;;10.90;2.83;;;;;;;22.53;37.61;99144.28;1775542;78;28062;-64
2021/05/10 08:09:18;;;;;;;9.13;2.70;;;;;;;22.58;37.36;99143.81;1783221;78;28053;-64
2021/05/10 08:11:55;;;;;;;6.03;2.58;;;;;;;22.47;37.44;99148.94;1825354;77;22811;-63
2021/05/10 08:16:59;;;;;;;8.23;2.75;;;;;;;22.47;37.55;99146.27;1796864;78;22551;-63
2021/05/10 08:19:37;;;;;;;4.30;2.02;;;;;;;22.49;37.59;99141.63;1828380;77;22659;-63
2021/05/10 08:22:13;;;;;;;16.80;2.85;;;;;;;22.46;37.79;99147.75;1828469;77;22734;-63
2021/05/10 08:24:49;;;;;;;13.90;3.73;;;;;;;22.42;37.61;99154.41;1754893;79;28646;-63
2021/05/10 08:27:25;;;;;;;9.87;2.90;;;;;;;22.37;37.53;99153.55;1761850;79;28006;-64
2021/05/10 08:30:05;;;;;;;29.73;5.10;;;;;;;22.40;37.70;99158.55;1775846;78;29445;-64
2021/05/10 08:32:42;;;;;;;21.27;4.08;;;;;;;22.46;37.54;99149.94;1793362;78;22532;-63
2021/05/10 08:35:19;;;;;;;30.25;5.25;;;;;;;22.38;37.56;99151.25;1831908;77;21975;-63
2021/05/10 08:37:55;;;;;;;32.67;4.72;;;;;;;22.17;37.00;99134.34;1825263;77;22725;-64
2021/05/10 08:40:31;;;;;;;11.17;3.77;;;;;;;22.00;37.37;99141.94;1778440;78;27981;-63
2021/05/10 08:44:28;;;;;;;23.87;4.60;;;;;;;22.09;37.58;99131.16;1835980;77;22841;-63
2021/05/10 08:47:08;;;;;;;20.48;4.60;;;;;;;22.13;37.85;99140.49;1805232;75;23054;-65
2021/05/10 08:52:22;;;;;;;;;;;;;;;;;;;;;
2021/05/10 08:54:53;;;;;;;22.20;6.22;;;;;;;22.11;37.69;99139.81;1768615;77;22858;-63
2021/05/10 08:57:33;;;;;;;111.08;19.62;;;;;;;22.23;37.77;99148.86;1827785;75;22748;-64
2021/05/10 09:00:15;;;;;;;27.45;5.47;;;;;;;22.33;37.67;99153.55;1741963;77;22712;-64
2021/05/10 09:03:12;;;;;;;10.13;3.62;;;;;;;22.41;37.87;99148.26;1771975;79;24611;-63
2021/05/10 09:05:57;;;;;;;23.07;5.60;;;;;;;22.46;37.75;99142.44;1771679;78;22816;-64
2021/05/10 09:08:37;;;;;;;9.83;3.55;;;;;;;22.43;37.74;99148.91;1836667;75;23405;-63
2021/05/10 09:11:15;;;;;;;19.82;4.30;;;;;;;22.25;37.69;99137.06;1767811;77;22496;-63
2021/05/10 09:13:58;;;;;;;4.92;2.98;;;;;;;22.19;38.00;99140.88;1861823;73;22908;-64
2021/05/10 09:16:40;;;;;;;8.60;3.72;;;;;;;22.09;37.74;99137.80;1796421;78;22634;-63
2021/05/10 09:19:16;;;;;;;14.43;4.45;;;;;;;22.08;37.96;99137.48;1765505;77;22814;-63
2021/05/10 09:21:57;;;;;;;8.83;3.55;;;;;;;22.17;38.10;99137.52;1779138;77;23428;-63
2021/05/10 09:24:52;;;;;;;22.40;4.92;;;;;;;22.31;38.18;99132.93;1788235;78;22500;-64
2021/05/10 09:27:30;;;;;;;17.95;3.80;;;;;;;22.41;37.89;99136.29;1829179;77;23975;-63
2021/05/10 09:30:22;;;;;;;8.77;3.73;;;;;;;22.45;37.80;99140.78;1785475;75;28326;-63
2021/05/10 09:33:46;;;;;;;14.05;4.03;;;;;;;22.53;37.90;99128.33;1792813;77;21023;-63
2021/05/10 09:36:41;;;;;;;8.65;3.17;;;;;;;22.71;37.94;99132.67;1795762;78;24563;-63
2021/05/10 09:42:09;;;;;;;14.75;4.00;;;;;;;22.79;38.00;99120.20;1796218;78;22393;-63
2021/05/10 09:44:46;;;;;;;8.30;3.60;;;;;;;22.83;37.83;99116.73;1813133;77;27816;-63
2021/05/10 09:47:22;;;;;;;14.23;3.62;;;;;;;22.81;37.63;99114.72;1836270;77;22715;-64
2021/05/10 09:49:58;;;;;;;7.72;3.70;;;;;;;22.77;37.90;99118.73;1784253;77;28116;-64
2021/05/10 09:52:35;;;;;;;11.63;4.20;;;;;;;22.87;37.25;99109.23;1810264;76;38240;-64
2021/05/10 09:55:14;;;;;;;12.70;4.15;;;;;;;22.80;37.55;99109.08;1771412;78;23108;-63
2021/05/10 09:57:57;;;;;;;13.67;3.93;;;;;;;22.78;37.36;99107.07;1818989;77;28567;-63
2021/05/10 10:04:17;;;;;;;6.73;3.50;;;;;;;22.78;37.29;99113.72;1779810;77;38347;-64
2021/05/10 10:06:54;;;;;;;5.03;3.02;;;;;;;22.84;37.31;99111.73;1799212;78;22751;-63
2021/05/10 10:09:30;;;;;;;8.05;3.33;;;;;;;22.87;37.31;99111.39;1813938;76;27979;-63
2021/05/10 10:12:06;;;;;;;9.57;3.90;;;;;;;23.07;37.51;99121.73;1778545;78;38558;-63
2021/05/10 10:14:43;;;;;;;7.50;3.15;;;;;;;23.16;37.46;99123.39;1815091;77;38313;-63
2021/05/10 10:17:19;;;;;;;7.37;3.30;;;;;;;23.31;37.41;99129.71;1796691;77;22870;-64
2021/05/10 10:19:57;;;;;;;7.80;3.67;;;;;;;23.33;37.23;99141.04;1812815;76;28018;-64
2021/05/10 10:22:34;;;;;;;4.40;2.52;;;;;;;23.23;37.00;99140.37;1798496;78;21992;-64
2021/05/10 10:25:10;;;;;;;13.20;3.02;;;;;;;23.18;37.16;99137.38;1793361;77;22779;-64
2021/05/10 10:27:48;;;;;;;3.77;2.77;;;;;;;23.19;37.19;99139.03;1782997;77;27879;-64
2021/05/10 10:30:25;;;;;;;5.58;2.70;;;;;;;23.31;36.95;99134.21;1767060;77;22826;-64
2021/05/10 10:33:05;;;;;;;8.40;2.92;;;;;;;23.27;36.84;99139.02;1795308;77;22776;-64
2021/05/10 10:35:44;;;;;;;6.05;2.92;;;;;;;23.18;36.58;99135.53;1830346;77;22751;-64
2021/05/10 10:38:32;;;;;;;5.90;2.60;;;;;;;23.17;37.00;99133.06;1797034;77;22899;-64
2021/05/10 10:41:21;;;;;;;7.05;3.00;;;;;;;23.31;37.13;99127.05;1834553;75;22365;-64
2021/05/10 10:44:06;;;;;;;6.22;3.02;;;;;;;23.41;36.97;99126.38;1829312;77;22492;-63
2021/05/10 10:47:46;;;;;;;4.62;2.50;;;;;;;23.42;36.76;99112.55;1790460;78;22300;-64
2021/05/10 10:51:00;;;;;;;9.80;2.50;;;;;;;23.50;36.90;99122.34;1860253;75;22690;-64
2021/05/10 10:55:18;;;;;;;4.33;2.00;;;;;;;23.61;36.69;99129.97;1823688;77;22768;-64
2021/05/10 10:58:22;;;;;;;3.62;1.72;;;;;;;23.63;36.50;99138.63;1827651;77;22771;-64
2021/05/10 11:01:08;;;;;;;3.50;2.15;;;;;;;23.64;36.45;99129.66;1795070;78;22819;-63
2021/05/10 11:03:44;;;;;;;8.78;2.17;;;;;;;23.67;36.08;99125.31;1784793;77;28233;-63
2021/05/10 11:06:22;;;;;;;5.33;1.93;;;;;;;23.76;36.17;99128.30;1816909;76;27837;-64
2021/05/10 11:08:57;;;;;;;8.80;2.10;;;;;;;23.83;35.97;99123.93;1798564;77;23051;-64
2021/05/10 11:11:39;;;;;;;13.65;2.12;;;;;;;23.89;36.07;99120.60;1758454;77;28097;-65
2021/05/10 11:14:15;;;;;;;2.83;1.67;;;;;;;24.00;36.18;99109.20;1831515;77;22665;-63
2021/05/10 11:16:56;;;;;;;13.13;1.90;;;;;;;24.15;36.00;99102.66;1822855;77;22753;-64
2021/05/10 11:19:41;;;;;;;15.48;2.30;;;;;;;24.20;35.79;99101.13;1780729;78;27893;-64
2021/05/10 11:25:41;;;;;;;9.88;1.87;;;;;;;24.33;35.03;99098.69;1867266;75;22853;-63
2021/05/10 11:28:28;;;;;;;5.00;1.67;;;;;;;24.33;35.40;99092.53;1773284;78;22808;-64
2021/05/10 11:31:16;;;;;;;13.40;1.60;;;;;;;24.25;35.11;99093.41;1804051;78;24705;-64
2021/05/10 11:34:00;;;;;;;17.70;2.67;;;;;;;24.10;34.42;99092.50;1802493;77;22284;-63
2021/05/10 11:36:39;;;;;;;8.18;1.82;;;;;;;23.94;34.24;99096.58;1830412;77;22676;-64
2021/05/10 11:39:27;;;;;;;17.82;2.27;;;;;;;23.82;34.34;99087.63;1794507;77;23045;-64
2021/05/10 11:42:11;;;;;;;4.97;1.98;;;;;;;23.84;34.53;99090.95;1835936;76;22770;-63
2021/05/10 11:44:58;;;;;;;3.90;1.82;;;;;;;23.97;34.41;99090.89;1764651;80;22291;-64
2021/05/10 11:47:33;;;;;;;3.87;1.27;;;;;;;24.02;34.18;99092.54;1790891;77;22762;-64
2021/05/10 11:50:10;;;;;;;6.53;1.70;;;;;;;24.04;33.86;99098.53;1780471;78;27996;-64
2021/05/10 11:52:50;;;;;;;12.10;2.22;;;;;;;24.16;34.22;99089.13;1829355;76;22752;-64
2021/05/10 11:55:26;;;;;;;7.05;1.87;;;;;;;24.26;34.17;99089.75;1777869;78;28853;-64
2021/05/10 11:58:02;;;;;;;8.50;2.17;;;;;;;24.30;33.71;99091.05;1779517;78;27998;-64
2021/05/10 12:00:41;;;;;;;10.40;1.87;;;;;;;24.19;33.82;99091.44;1785296;77;27948;-64
2021/05/10 12:03:28;;;;;;;2.05;1.37;;;;;;;23.98;33.74;99088.58;1801015;77;23303;-64
2021/05/10 12:06:31;;;;;;;6.87;2.12;;;;;;;23.90;33.89;99086.27;1794442;78;22840;-64
2021/05/10 12:09:07;;;;;;;13.62;2.17;;;;;;;23.97;33.77;99085.56;1867533;75;22765;-64
2021/05/10 12:11:43;;;;;;;9.45;2.10;;;;;;;24.07;34.02;99090.19;1816897;75;28482;-65
2021/05/10 12:14:22;;;;;;;23.37;2.87;;;;;;;24.30;33.98;99077.70;1809105;75;28013;-64
2021/05/10 12:17:16;;;;;;;5.72;1.40;;;;;;;24.51;33.79;99073.62;1792839;77;22817;-64
2021/05/10 12:20:36;;;;;;;25.85;2.87;;;;;;;24.73;33.52;99074.59;1851375;75;22750;-64
2021/05/10 12:23:19;;;;;;;9.68;1.67;;;;;;;24.83;33.59;99069.84;1788486;78;23365;-64
2021/05/10 12:25:55;;;;;;;2.42;1.40;;;;;;;24.91;33.40;99060.94;1770236;78;23008;-64
2021/05/10 12:28:35;;;;;;;2.35;1.77;;;;;;;25.01;33.63;99074.37;1837534;76;22767;-64
2021/05/10 12:31:11;;;;;;;2.93;1.60;;;;;;;25.03;33.44;99075.50;1789813;75;27888;-64
2021/05/10 12:33:51;;;;;;;4.87;1.77;;;;;;;25.04;33.53;99074.52;1784400;77;27877;-64
2021/05/10 12:36:28;;;;;;;9.05;1.52;;;;;;;24.94;33.51;99079.27;1801372;75;23050;-63
2021/05/10 12:39:15;;;;;;;6.85;1.62;;;;;;;24.82;33.56;99084.22;1794496;78;21017;-64
2021/05/10 12:41:51;;;;;;;9.40;2.22;;;;;;;24.71;33.19;99080.13;1833925;76;22298;-65
2021/05/10 12:44:27;;;;;;;9.67;2.10;;;;;;;24.66;33.56;99095.84;1777034;77;28285;-64
2021/05/10 12:47:07;;;;;;;7.35;2.05;;;;;;;24.68;33.48;99077.81;1824906;77;23358;-64
2021/05/10 12:49:44;;;;;;;3.42;1.42;;;;;;;24.76;33.61;99079.60;1812484;77;39369;-65
2021/05/10 12:52:19;;;;;;;11.00;1.98;;;;;;;24.89;33.55;99070.97;1771770;77;22057;-65
2021/05/10 12:54:56;;;;;;;17.65;2.55;;;;;;;24.91;33.74;99072.96;1815009;76;28029;-64
2021/05/10 12:57:32;;;;;;;18.00;2.00;;;;;;;24.99;33.89;99063.55;1859177;76;22207;-65
2021/05/10 13:00:12;;;;;;;8.35;1.77;;;;;;;25.01;33.29;99061.50;1812643;76;36751;-65
2021/05/10 13:02:48;;;;;;;4.65;1.62;;;;;;;25.04;33.60;99067.84;1760635;79;22807;-64
2021/05/10 13:05:34;;;;;;;18.32;1.80;;;;;;;25.09;33.64;99074.77;1795303;78;22878;-65
2021/05/10 13:08:13;;;;;;;7.33;1.50;;;;;;;25.11;33.47;99073.27;1836555;76;23517;-65
2021/05/10 13:10:54;;;;;;;9.53;1.55;;;;;;;25.10;33.40;99075.62;1774767;79;22751;-65
2021/05/10 13:31:35;;;;;;;7.58;1.98;;;;;;;24.72;32.85;99065.77;1773850;76;23579;-64
2021/05/10 13:36:55;;;;;;;10.40;1.70;;;;;;;25.08;33.26;99070.45;1792958;78;23349;-65
2021/05/10 13:39:30;;;;;;;7.12;1.47;;;;;;;25.29;33.12;99068.94;1836374;77;22440;-65
2021/05/10 13:42:14;;;;;;;15.03;2.02;;;;;;;25.41;33.15;99056.80;1777614;78;27942;-64
2021/05/10 13:44:49;;;;;;;14.50;2.30;;;;;;;25.56;32.80;99054.94;1822140;76;22756;-65
2021/05/10 13:47:25;;;;;;;3.92;1.80;;;;;;;25.56;32.81;99058.95;1823879;77;22882;-64
2021/05/10 13:50:00;;;;;;;6.53;1.90;;;;;;;25.53;32.68;99062.51;1812650;75;38212;-64
2021/05/10 13:52:36;;;;;;;7.42;1.47;;;;;;;25.60;32.83;99056.25;1812763;76;28381;-65
2021/05/10 13:55:12;;;;;;;17.17;2.30;;;;;;;25.68;32.47;99056.15;1781509;78;28467;-65
2021/05/10 13:57:48;;;;;;;38.93;3.37;;;;;;;25.73;32.66;99060.92;1756415;79;28018;-65
2021/05/10 14:00:24;;;;;;;7.53;1.50;;;;;;;25.84;32.67;99056.98;1801687;77;22000;-64
2021/05/10 14:03:04;;;;;;;5.42;1.75;;;;;;;25.80;32.18;99050.33;1834582;77;22776;-65
2021/05/10 14:05:40;;;;;;;8.37;1.50;;;;;;;25.72;32.26;99050.42;1781907;75;28136;-64
2021/05/10 14:08:16;;;;;;;42.25;4.10;;;;;;;25.74;32.26;99040.34;1813353;77;28530;-65
2021/05/10 14:10:51;;;;;;;8.30;1.55;;;;;;;25.85;32.22;99037.23;1820158;77;28081;-65
2021/05/10 14:13:27;;;;;;;9.55;1.57;;;;;;;25.97;31.76;99038.42;1816343;77;27915;-66
2021/05/10 14:16:25;;;;;;;7.07;1.63;;;;;;;26.11;32.19;99048.77;1748981;79;28297;-66
2021/05/10 14:22:01;;;;;;;17.73;2.00;;;;;;;26.00;30.89;99051.41;1827018;77;22641;-65
2021/05/10 14:24:37;;;;;;;4.72;1.60;;;;;;;25.48;31.04;99052.36;1748557;79;28003;-64
2021/05/10 14:27:13;;;;;;;11.00;2.02;;;;;;;25.25;30.95;99054.30;1825045;77;27768;-64
2021/05/10 14:29:49;;;;;;;9.08;1.87;;;;;;;25.15;31.21;99054.07;1778027;78;28577;-65
2021/05/10 14:32:32;;;;;;;6.55;1.27;;;;;;;25.36;31.61;99050.66;1832978;77;22272;-64
2021/05/10 14:35:09;;;;;;;16.27;2.52;;;;;;;25.50;31.47;99050.85;1814383;76;28068;-65
2021/05/10 14:37:46;;;;;;;5.47;1.65;;;;;;;25.56;31.16;99038.91;1771673;78;22408;-64
2021/05/10 14:40:26;;;;;;;12.13;1.98;;;;;;;25.59;31.49;99033.18;1796298;77;24334;-65
2021/05/10 14:43:01;;;;;;;8.95;1.50;;;;;;;25.65;31.57;99025.78;1809275;77;32800;-64
2021/05/10 14:45:37;;;;;;;14.83;1.92;;;;;;;25.73;31.35;99017.31;1810995;77;27975;-64
2021/05/10 14:48:17;;;;;;;13.18;1.57;;;;;;;25.89;31.54;99011.78;1790671;78;22654;-64
2021/05/10 14:50:53;;;;;;;3.50;1.20;;;;;;;25.89;31.28;99007.77;1777349;78;28038;-64
2021/05/10 14:53:30;;;;;;;12.50;1.97;;;;;;;25.82;31.01;99008.16;1814895;77;27880;-64
2021/05/10 14:56:07;;;;;;;12.13;1.72;;;;;;;25.73;31.00;99011.97;1835788;77;21818;-64
2021/05/10 14:58:43;;;;;;;8.18;1.37;;;;;;;25.62;31.11;99032.80;1838239;77;22707;-64
2021/05/10 15:01:19;;;;;;;9.17;1.60;;;;;;;25.55;30.97;99029.23;1810686;77;28584;-65
2021/05/10 15:03:55;;;;;;;23.73;2.80;;;;;;;25.48;30.81;99028.30;1782043;78;27937;-63
2021/05/10 15:06:31;;;;;;;6.20;1.57;;;;;;;25.37;31.00;99027.44;1776540;78;29517;-64
2021/05/10 15:09:07;;;;;;;10.50;1.93;;;;;;;25.26;31.02;99026.56;1813082;76;27879;-64
2021/05/10 15:11:43;;;;;;;13.47;2.40;;;;;;;25.19;31.07;99025.14;1755707;79;28853;-63
2021/05/10 15:14:23;;;;;;;8.60;1.77;;;;;;;25.15;31.10;99035.85;1779280;78;27925;-64
2021/05/10 15:16:57;;;;;;;24.18;2.40;;;;;;;25.01;31.14;99032.12;1823171;76;22319;-64
2021/05/10 15:19:33;;;;;;;12.80;1.90;;;;;;;24.78;31.31;99037.52;1811309;76;28166;-63
2021/05/10 15:22:08;;;;;;;5.43;1.40;;;;;;;24.61;31.27;99026.15;1780690;77;27941;-64
2021/05/10 15:24:44;;;;;;;9.15;1.80;;;;;;;24.49;31.27;99035.59;1821234;76;28551;-64
2021/05/10 15:27:21;;;;;;;29.25;2.65;;;;;;;24.45;31.54;99047.63;1810009;76;28494;-64
2021/05/10 15:29:57;;;;;;;20.77;2.02;;;;;;;24.43;31.46;99049.63;1802343;78;22376;-63
2021/05/10 15:32:38;;;;;;;12.68;2.20;;;;;;;24.28;31.48;99053.06;1795138;78;22738;-63
2021/05/10 15:35:34;;;;;;;4.33;1.80;;;;;;;24.14;31.51;99061.80;1782006;78;37774;-64
2021/05/10 15:38:10;;;;;;;52.62;4.28;;;;;;;24.20;31.42;99055.78;1754909;78;28665;-64
2021/05/10 15:40:46;;;;;;;7.87;2.20;;;;;;;24.35;31.79;99057.17;1781307;78;28619;-64
2021/05/10 15:43:21;;;;;;;5.90;1.60;;;;;;;24.55;31.78;99060.23;1776658;78;28039;-64
2021/05/10 15:45:57;;;;;;;11.68;2.22;;;;;;;24.68;31.69;99063.14;1779927;77;27895;-64
2021/05/10 15:48:32;;;;;;;14.55;3.45;;;;;;;24.71;31.73;99077.46;1815833;77;27853;-64
2021/05/10 15:51:08;;;;;;;18.27;4.35;;;;;;;24.69;31.75;99089.32;1808061;77;27884;-63
2021/05/10 15:53:44;;;;;;;10.20;2.70;;;;;;;24.71;31.76;99090.80;1778091;78;38368;-63
2021/05/10 15:56:28;;;;;;;4.93;1.53;;;;;;;24.72;31.81;99088.45;1782222;78;27915;-64
2021/05/10 15:59:04;;;;;;;5.90;2.25;;;;;;;24.78;32.04;99111.76;1761576;75;22501;-64
2021/05/10 16:01:46;;;;;;;8.90;4.40;;;;;;;24.73;31.85;99094.13;1790131;78;23384;-63
2021/05/10 16:04:21;;;;;;;11.67;4.87;;;;;;;24.62;31.91;99102.56;1849877;75;27913;-64
2021/05/10 16:06:57;;;;;;;4.58;1.60;;;;;;;24.56;31.85;99103.25;1809996;77;27858;-63
2021/05/10 16:09:33;;;;;;;24.92;7.22;;;;;;;24.48;31.82;99103.33;1786385;77;28010;-64
2021/05/10 16:12:10;;;;;;;10.73;2.90;;;;;;;24.44;32.08;99108.17;1823888;77;27982;-63
2021/05/10 16:14:48;;;;;;;9.40;1.70;;;;;;;24.46;32.21;99098.66;1824055;76;22733;-64
2021/05/10 16:17:24;;;;;;;6.12;1.50;;;;;;;24.37;32.27;99098.34;1826781;76;22725;-63
2021/05/10 16:19:59;;;;;;;8.13;1.77;;;;;;;24.27;32.13;99092.73;1810971;77;28621;-64
2021/05/10 16:25:34;;;;;;;10.55;1.70;;;;;;;24.13;32.12;99105.48;1840379;76;22925;-63
2021/05/10 16:28:14;;;;;;;13.15;1.77;;;;;;;23.90;32.26;99122.25;1798257;78;23875;-63
2021/05/10 16:30:49;;;;;;;14.60;2.27;;;;;;;23.70;32.44;99122.30;1825642;76;27911;-63
2021/05/10 16:33:25;;;;;;;9.18;2.25;;;;;;;23.58;32.39;99119.65;1815076;77;28567;-63
2021/05/10 16:36:02;;;;;;;12.20;2.62;;;;;;;23.52;32.51;99123.00;1818582;77;29309;-64
2021/05/10 16:38:38;;;;;;;12.45;2.08;;;;;;;23.48;32.58;99127.02;1829548;77;22190;-64
2021/05/10 16:41:14;;;;;;;12.00;2.40;;;;;;;23.35;32.74;99135.02;1814010;77;27842;-64
2021/05/10 16:43:56;;;;;;;11.47;2.30;;;;;;;23.25;32.78;99133.05;1813070;76;27879;-65
2021/05/10 16:46:44;;;;;;;9.28;1.90;;;;;;;23.18;32.80;99130.21;1826154;76;23440;-63
2021/05/10 16:49:20;;;;;;;13.35;2.17;;;;;;;23.06;33.07;99131.56;1760903;78;33625;-63
2021/05/10 16:54:21;;;;;;;10.82;1.85;;;;;;;23.09;33.21;99135.72;1835016;76;22023;-63
2021/05/10 16:56:56;;;;;;;10.10;2.40;;;;;;;23.07;33.42;99136.38;1781661;77;28471;-63
2021/05/10 16:59:33;;;;;;;12.33;2.57;;;;;;;23.13;33.51;99129.05;1810492;76;28021;-63
2021/05/10 17:02:08;;;;;;;10.23;2.77;;;;;;;23.19;33.70;99131.89;1775758;75;38399;-63
2021/05/10 17:04:44;;;;;;;15.23;3.03;;;;;;;23.29;33.68;99139.69;1774758;78;28063;-63
2021/05/10 17:08:04;;;;;;;10.88;3.42;;;;;;;23.43;33.80;99136.84;1790655;77;22798;-62
2021/05/10 17:10:40;;;;;;;8.90;2.40;;;;;;;23.42;33.86;99130.69;1827249;77;22718;-63
2021/05/10 17:13:16;;;;;;;13.43;3.40;;;;;;;23.36;33.90;99134.04;1819943;75;27945;-63
2021/05/10 17:15:51;;;;;;;15.25;3.40;;;;;;;23.38;34.02;99140.51;1811199;77;27883;-63
2021/05/10 17:18:28;;;;;;;17.05;4.03;;;;;;;23.41;34.21;99135.70;1779278;75;28027;-63
2021/05/10 17:21:05;;;;;;;27.62;7.50;;;;;;;23.43;34.16;99141.67;1824384;77;22255;-63
2021/05/10 17:23:41;;;;;;;16.57;4.08;;;;;;;23.34;34.28;99134.70;1837181;76;22675;-63
2021/05/10 17:26:17;;;;;;;14.90;6.67;;;;;;;23.25;34.42;99133.05;1759906;78;32942;-63
2021/05/10 17:28:52;;;;;;;11.97;4.10;;;;;;;23.21;34.33;99131.70;1758604;79;28209;-62
2021/05/10 17:31:28;;;;;;;17.92;4.35;;;;;;;23.19;34.46;99131.03;1781602;78;27994;-63
2021/05/10 17:34:04;;;;;;;24.92;7.03;;;;;;;23.15;34.58;99131.88;1812488;77;27956;-63
2021/05/10 17:36:40;;;;;;;14.20;4.37;;;;;;;23.09;34.68;99135.72;1821171;76;27968;-63
2021/05/10 17:39:17;;;;;;;15.20;3.50;;;;;;;23.05;34.77;99139.70;1820896;76;27984;-63
2021/05/10 17:41:58;;;;;;;6.70;2.98;;;;;;;22.96;34.87;99139.70;1826593;77;22702;-63
2021/05/10 17:44:34;;;;;;;11.28;3.12;;;;;;;22.80;34.98;99151.66;1803493;78;20924;-63
2021/05/10 17:47:10;;;;;;;14.53;3.08;;;;;;;22.64;35.15;99151.63;1823567;75;28585;-63
2021/05/10 17:49:49;;;;;;;9.23;2.83;;;;;;;22.54;35.14;99148.60;1836018;76;22704;-63
2021/05/10 17:52:25;;;;;;;16.30;4.37;;;;;;;22.41;35.17;99158.90;1814988;77;28021;-63
2021/05/10 17:55:04;;;;;;;14.07;2.80;;;;;;;22.36;35.31;99161.20;1815964;77;28001;-63
2021/05/10 17:57:41;;;;;;;12.35;4.30;;;;;;;22.31;35.34;99158.19;1842218;74;22739;-64
2021/05/10 18:00:23;;;;;;;23.95;17.73;;;;;;;22.14;35.48;99158.59;1844274;76;22756;-64
2021/05/10 18:03:12;;;;;;;12.75;3.70;;;;;;;21.95;35.63;99164.99;1842248;76;23943;-64
2021/05/10 18:05:47;;;;;;;7.15;2.52;;;;;;;21.71;35.73;99163.06;1770933;79;22786;-64
2021/05/10 18:08:23;;;;;;;13.93;3.17;;;;;;;21.54;35.83;99163.95;1811849;77;27964;-64
2021/05/10 18:10:59;;;;;;;33.48;23.35;;;;;;;21.44;35.93;99165.37;1803249;77;22091;-64
2021/05/10 18:13:38;;;;;;;16.67;10.98;;;;;;;21.27;36.09;99174.17;1835521;76;22790;-64
2021/05/10 18:16:17;;;;;;;18.30;5.40;;;;;;;21.06;36.24;99170.04;1808423;77;27968;-64
2021/05/10 18:18:58;;;;;;;9.55;5.70;;;;;;;20.91;36.38;99172.38;1830616;77;22834;-65
2021/05/10 18:21:37;;;;;;;9.43;3.42;;;;;;;20.68;36.65;99172.00;1791705;78;23399;-63
2021/05/10 18:24:12;;;;;;;19.75;5.58;;;;;;;20.47;36.86;99171.40;1782734;78;38994;-64
2021/05/10 18:26:48;;;;;;;21.73;7.25;;;;;;;20.34;36.90;99175.25;1811247;77;27907;-63
2021/05/10 18:29:24;;;;;;;24.00;8.03;;;;;;;20.25;37.10;99173.96;1783306;77;28082;-64
2021/05/10 18:31:59;;;;;;;23.73;7.62;;;;;;;20.15;37.29;99170.05;1807574;77;28018;-64
2021/05/10 18:34:35;;;;;;;17.60;7.30;;;;;;;20.05;37.47;99175.88;1776720;78;28127;-64